createdAt,value
2023-01-23T00:00:04.826Z,4.84
2023-01-23T00:01:04.819Z,4.75
2023-01-23T00:02:04.855Z,4.78
2023-01-23T00:03:04.825Z,4.82
2023-01-23T00:04:04.897Z,4.93
2023-01-23T00:05:04.829Z,4.89
2023-01-23T00:06:04.842Z,4.92
2023-01-23T00:07:04.830Z,4.86
2023-01-23T00:08:04.831Z,4.90
2023-01-23T00:09:04.852Z,4.97
2023-01-23T00:10:04.983Z,4.87
2023-01-23T00:11:04.838Z,4.94
2023-01-23T00:12:04.847Z,4.92
2023-01-23T00:13:04.848Z,4.93
2023-01-23T00:14:04.968Z,4.86
2023-01-23T00:15:06.621Z,4.92
2023-01-23T00:16:04.923Z,4.78
2023-01-23T00:17:04.855Z,4.74
2023-01-23T00:18:04.854Z,4.75
2023-01-23T00:19:04.859Z,4.71
2023-01-23T00:20:04.855Z,4.74
2023-01-23T00:21:04.862Z,4.77
2023-01-23T00:22:04.860Z,4.67
2023-01-23T00:23:04.864Z,4.68
2023-01-23T00:24:04.858Z,4.75
2023-01-23T00:25:04.866Z,4.75
2023-01-23T00:26:04.869Z,4.74
2023-01-23T00:27:04.869Z,4.71
2023-01-23T00:28:04.879Z,4.70
2023-01-23T00:29:04.879Z,4.84
2023-01-23T00:30:04.994Z,4.70
2023-01-23T00:31:05.035Z,4.87
2023-01-23T00:32:04.976Z,4.68
2023-01-23T00:33:04.883Z,4.71
2023-01-23T00:34:04.876Z,4.82
2023-01-23T00:35:04.875Z,4.80
2023-01-23T00:36:04.877Z,4.74
2023-01-23T00:37:04.877Z,4.80
2023-01-23T00:38:04.945Z,4.86
2023-01-23T00:39:04.908Z,4.77
2023-01-23T00:40:04.888Z,4.84
2023-01-23T00:41:04.890Z,4.78
2023-01-23T00:42:04.891Z,4.82
2023-01-23T00:43:04.888Z,4.84
2023-01-23T00:44:04.903Z,4.75
2023-01-23T00:45:04.891Z,4.74
2023-01-23T00:46:05.053Z,4.71
2023-01-23T00:47:04.892Z,4.70
2023-01-23T00:48:04.921Z,4.84
2023-01-23T00:49:04.901Z,4.71
2023-01-23T00:50:04.894Z,4.70
2023-01-23T00:51:05.018Z,4.75
2023-01-23T00:52:04.906Z,4.70
2023-01-23T00:53:04.909Z,4.74
2023-01-23T00:54:04.908Z,4.80
2023-01-23T00:55:04.928Z,4.67
2023-01-23T00:56:04.904Z,4.77
2023-01-23T00:57:04.921Z,4.77
2023-01-23T00:58:04.915Z,4.77
2023-01-23T00:59:04.908Z,4.71
2023-01-23T01:00:04.927Z,4.78
2023-01-23T01:01:04.922Z,4.74
2023-01-23T01:02:05.049Z,4.74
2023-01-23T01:03:05.019Z,4.73
2023-01-23T01:04:04.927Z,4.75
2023-01-23T01:05:04.918Z,4.71
2023-01-23T01:06:04.920Z,4.75
2023-01-23T01:07:04.922Z,4.73
2023-01-23T01:08:04.948Z,4.77
2023-01-23T01:09:04.934Z,4.78
2023-01-23T01:10:04.931Z,4.77
2023-01-23T01:11:04.932Z,4.68
2023-01-23T01:12:04.933Z,4.77
2023-01-23T01:13:04.937Z,4.73
2023-01-23T01:14:04.952Z,4.75
2023-01-23T01:15:04.944Z,4.80
2023-01-23T01:16:04.994Z,4.74
2023-01-23T01:17:04.938Z,4.80
2023-01-23T01:18:05.071Z,4.86
2023-01-23T01:19:04.953Z,4.89
2023-01-23T01:20:04.949Z,4.90
2023-01-23T01:21:04.951Z,4.84
2023-01-23T01:22:04.943Z,4.90
2023-01-23T01:23:04.954Z,4.82
2023-01-23T01:24:04.947Z,4.82
2023-01-23T01:25:04.951Z,4.78
2023-01-23T01:26:04.957Z,4.80
2023-01-23T01:27:04.954Z,4.86
2023-01-23T01:28:04.960Z,4.78
2023-01-23T01:29:04.959Z,4.82
2023-01-23T01:30:04.961Z,4.82
2023-01-23T01:31:05.041Z,4.74
2023-01-23T01:32:04.958Z,4.78
2023-01-23T01:33:04.960Z,4.82
2023-01-23T01:34:05.087Z,4.75
2023-01-23T01:35:04.963Z,4.75
2023-01-23T01:36:04.966Z,4.74
2023-01-23T01:37:04.974Z,4.78
2023-01-23T01:38:04.966Z,4.74
2023-01-23T01:39:04.969Z,4.86
2023-01-23T01:40:04.979Z,4.82
2023-01-23T01:41:04.987Z,4.77
2023-01-23T01:42:04.980Z,4.84
2023-01-23T01:43:04.985Z,4.70
2023-01-23T01:44:04.976Z,4.74
2023-01-23T01:45:04.990Z,4.73
2023-01-23T01:46:04.984Z,4.73
2023-01-23T01:47:04.994Z,4.78
2023-01-23T01:48:04.988Z,4.75
2023-01-23T01:49:04.992Z,4.94
2023-01-23T01:50:05.112Z,4.77
2023-01-23T01:51:05.015Z,4.74
2023-01-23T01:52:04.995Z,4.87
2023-01-23T01:53:04.992Z,4.92
2023-01-23T01:54:04.993Z,4.89
2023-01-23T01:55:05.004Z,4.89
2023-01-23T01:56:05.006Z,4.87
2023-01-23T01:57:05.004Z,4.92
2023-01-23T01:58:05.007Z,4.94
2023-01-23T01:59:05.003Z,4.94
2023-01-23T02:00:05.062Z,4.87
2023-01-23T02:01:05.050Z,4.87
2023-01-23T02:02:05.248Z,4.96
2023-01-23T02:03:05.010Z,4.94
2023-01-23T02:04:05.014Z,4.94
2023-01-23T02:05:05.017Z,4.94
2023-01-23T02:06:05.137Z,4.92
2023-01-23T02:07:05.017Z,4.90
2023-01-23T02:08:05.012Z,4.87
2023-01-23T02:09:05.023Z,4.94
2023-01-23T02:10:05.024Z,4.89
2023-01-23T02:11:05.018Z,4.90
2023-01-23T02:12:05.025Z,4.97
2023-01-23T02:13:05.019Z,4.94
2023-01-23T02:14:05.047Z,4.87
2023-01-23T02:15:05.030Z,4.87
2023-01-23T02:16:05.080Z,4.73
2023-01-23T02:17:05.034Z,4.86
2023-01-23T02:18:05.026Z,4.77
2023-01-23T02:19:05.038Z,4.92
2023-01-23T02:20:05.036Z,4.92
2023-01-23T02:21:05.041Z,4.92
2023-01-23T02:22:05.167Z,4.97
2023-01-23T02:23:05.045Z,4.90
2023-01-23T02:24:05.046Z,4.97
2023-01-23T02:25:05.045Z,4.99
2023-01-23T02:26:05.046Z,4.99
2023-01-23T02:27:05.049Z,4.89
2023-01-23T02:28:05.043Z,4.87
2023-01-23T02:29:05.052Z,4.87
2023-01-23T02:30:05.053Z,4.78
2023-01-23T02:31:05.201Z,4.89
2023-01-23T02:32:05.103Z,4.78
2023-01-23T02:33:05.057Z,4.74
2023-01-23T02:34:05.062Z,4.75
2023-01-23T02:35:05.062Z,4.78
2023-01-23T02:36:05.056Z,4.71
2023-01-23T02:37:05.056Z,4.70
2023-01-23T02:38:05.178Z,4.80
2023-01-23T02:39:05.066Z,4.71
2023-01-23T02:40:05.070Z,4.75
2023-01-23T02:41:05.061Z,4.84
2023-01-23T02:42:05.071Z,4.77
2023-01-23T02:43:05.068Z,4.71
2023-01-23T02:44:05.072Z,4.74
2023-01-23T02:45:05.068Z,4.82
2023-01-23T02:46:05.118Z,4.90
2023-01-23T02:47:05.089Z,4.80
2023-01-23T02:48:05.083Z,4.86
2023-01-23T02:49:05.083Z,4.82
2023-01-23T02:50:05.075Z,4.82
2023-01-23T02:51:05.168Z,4.75
2023-01-23T02:52:05.085Z,4.71
2023-01-23T02:53:05.091Z,4.78
2023-01-23T02:54:05.207Z,4.75
2023-01-23T02:55:05.086Z,4.77
2023-01-23T02:56:05.095Z,4.73
2023-01-23T02:57:05.097Z,4.74
2023-01-23T02:58:05.087Z,4.75
2023-01-23T02:59:05.102Z,4.71
2023-01-23T03:00:05.104Z,4.74
2023-01-23T03:01:05.120Z,4.73
2023-01-23T03:02:05.148Z,4.77
2023-01-23T03:03:05.104Z,4.82
2023-01-23T03:04:05.110Z,4.78
2023-01-23T03:05:05.115Z,4.86
2023-01-23T03:06:05.112Z,4.89
2023-01-23T03:07:05.103Z,4.82
2023-01-23T03:08:05.136Z,4.92
2023-01-23T03:09:05.114Z,4.93
2023-01-23T03:10:05.236Z,4.89
2023-01-23T03:11:05.112Z,4.94
2023-01-23T03:12:05.109Z,4.89
2023-01-23T03:13:05.118Z,4.90
2023-01-23T03:14:05.123Z,4.99
2023-01-23T03:15:05.131Z,5.04
2023-01-23T03:16:05.168Z,4.96
2023-01-23T03:17:05.132Z,4.99
2023-01-23T03:18:05.119Z,4.96
2023-01-23T03:19:05.158Z,4.96
2023-01-23T03:20:05.127Z,4.94
2023-01-23T03:21:05.129Z,4.89
2023-01-23T03:22:05.124Z,4.87
2023-01-23T03:23:05.133Z,4.97
2023-01-23T03:24:05.129Z,4.92
2023-01-23T03:25:05.140Z,4.96
2023-01-23T03:26:05.245Z,4.97
2023-01-23T03:27:05.134Z,4.90
2023-01-23T03:28:05.133Z,4.89
2023-01-23T03:29:05.136Z,4.92
2023-01-23T03:30:05.203Z,4.87
2023-01-23T03:31:05.179Z,4.90
2023-01-23T03:32:05.151Z,4.90
2023-01-23T03:33:05.142Z,4.93
2023-01-23T03:34:05.155Z,4.90
2023-01-23T03:35:05.155Z,4.87
2023-01-23T03:36:05.153Z,4.92
2023-01-23T03:37:05.156Z,4.90
2023-01-23T03:38:05.147Z,5.00
2023-01-23T03:39:05.162Z,4.94
2023-01-23T03:40:05.176Z,4.90
2023-01-23T03:41:05.157Z,4.90
2023-01-23T03:42:05.184Z,4.96
2023-01-23T03:43:05.170Z,5.05
2023-01-23T03:44:05.165Z,4.92
2023-01-23T03:45:05.173Z,5.04
2023-01-23T03:46:05.222Z,5.00
2023-01-23T03:47:05.176Z,5.05
2023-01-23T03:48:05.174Z,4.87
2023-01-23T03:49:05.166Z,5.02
2023-01-23T03:50:05.174Z,4.97
2023-01-23T03:51:05.207Z,4.94
2023-01-23T03:52:05.172Z,4.90
2023-01-23T03:53:05.183Z,4.90
2023-01-23T03:54:05.191Z,4.94
2023-01-23T03:55:05.183Z,4.87
2023-01-23T03:56:05.177Z,4.92
2023-01-23T03:57:05.180Z,5.00
2023-01-23T03:58:05.297Z,4.99
2023-01-23T03:59:05.181Z,5.04
2023-01-23T04:00:05.191Z,5.05
2023-01-23T04:01:05.279Z,4.94
2023-01-23T04:02:05.189Z,5.04
2023-01-23T04:03:05.383Z,4.94
2023-01-23T04:04:05.195Z,4.94
2023-01-23T04:05:05.199Z,4.99
2023-01-23T04:06:05.193Z,4.94
2023-01-23T04:07:05.204Z,4.99
2023-01-23T04:08:05.200Z,4.87
2023-01-23T04:09:05.222Z,4.87
2023-01-23T04:10:05.224Z,4.93
2023-01-23T04:11:05.214Z,4.93
2023-01-23T04:12:05.202Z,4.94
2023-01-23T04:13:05.206Z,4.89
2023-01-23T04:14:05.329Z,4.90
2023-01-23T04:15:05.206Z,4.92
2023-01-23T04:16:05.214Z,4.99
2023-01-23T04:17:05.209Z,4.90
2023-01-23T04:18:05.208Z,4.97
2023-01-23T04:19:05.219Z,4.93
2023-01-23T04:20:05.229Z,4.96
2023-01-23T04:21:05.221Z,4.92
2023-01-23T04:22:05.219Z,4.87
2023-01-23T04:23:05.223Z,4.92
2023-01-23T04:24:05.233Z,4.96
2023-01-23T04:25:05.227Z,4.97
2023-01-23T04:26:05.235Z,4.97
2023-01-23T04:27:05.232Z,5.02
2023-01-23T04:28:05.227Z,4.92
2023-01-23T04:29:05.233Z,4.96
2023-01-23T04:30:05.359Z,4.94
2023-01-23T04:31:05.346Z,5.02
2023-01-23T04:32:05.231Z,4.97
2023-01-23T04:33:05.233Z,4.93
2023-01-23T04:34:05.246Z,4.94
2023-01-23T04:35:05.238Z,5.04
2023-01-23T04:36:05.246Z,5.02
2023-01-23T04:37:05.246Z,5.08
2023-01-23T04:38:05.238Z,5.05
2023-01-23T04:39:05.251Z,5.02
2023-01-23T04:40:05.242Z,5.07
2023-01-23T04:41:05.246Z,4.99
2023-01-23T04:42:05.251Z,5.10
2023-01-23T04:43:05.266Z,5.11
2023-01-23T04:44:05.248Z,5.10
2023-01-23T04:45:05.270Z,4.97
2023-01-23T04:46:05.410Z,5.10
2023-01-23T04:47:05.265Z,5.07
2023-01-23T04:48:05.254Z,5.02
2023-01-23T04:49:05.294Z,5.02
2023-01-23T04:50:05.299Z,5.00
2023-01-23T04:51:05.318Z,4.93
2023-01-23T04:52:05.277Z,4.96
2023-01-23T04:53:05.275Z,4.94
2023-01-23T04:54:05.271Z,4.92
2023-01-23T04:55:05.264Z,4.92
2023-01-23T04:56:05.279Z,5.02
2023-01-23T04:57:05.281Z,4.93
2023-01-23T04:58:05.282Z,4.90
2023-01-23T04:59:05.270Z,5.02
2023-01-23T05:00:05.279Z,4.93
2023-01-23T05:01:05.346Z,4.94
2023-01-23T05:02:05.464Z,4.96
2023-01-23T05:03:05.280Z,4.78
2023-01-23T05:04:05.287Z,4.74
2023-01-23T05:05:05.281Z,4.75
2023-01-23T05:06:05.281Z,4.75
2023-01-23T05:07:05.281Z,4.74
2023-01-23T05:08:05.299Z,4.75
2023-01-23T05:09:05.295Z,4.71
2023-01-23T05:10:05.287Z,4.68
2023-01-23T05:11:05.295Z,4.73
2023-01-23T05:12:05.296Z,4.75
2023-01-23T05:13:05.304Z,4.73
2023-01-23T05:14:05.304Z,4.68
2023-01-23T05:15:05.303Z,4.71
2023-01-23T05:16:05.331Z,4.68
2023-01-23T05:17:05.300Z,4.73
2023-01-23T05:18:05.423Z,4.73
2023-01-23T05:19:05.307Z,4.68
2023-01-23T05:20:05.309Z,4.68
2023-01-23T05:21:05.305Z,4.70
2023-01-23T05:22:05.303Z,4.75
2023-01-23T05:23:05.312Z,4.73
2023-01-23T05:24:05.307Z,4.73
2023-01-23T05:25:05.307Z,4.62
2023-01-23T05:26:05.310Z,4.67
2023-01-23T05:27:05.316Z,4.73
2023-01-23T05:28:05.311Z,4.77
2023-01-23T05:29:05.319Z,4.63
2023-01-23T05:30:05.314Z,4.60
2023-01-23T05:31:05.470Z,4.75
2023-01-23T05:32:05.318Z,4.74
2023-01-23T05:33:05.319Z,4.77
2023-01-23T05:34:05.446Z,4.78
2023-01-23T05:35:05.334Z,4.74
2023-01-23T05:36:05.329Z,4.75
2023-01-23T05:37:05.337Z,4.70
2023-01-23T05:38:05.333Z,4.84
2023-01-23T05:39:05.327Z,4.80
2023-01-23T05:40:05.328Z,4.67
2023-01-23T05:41:05.332Z,4.71
2023-01-23T05:42:05.338Z,4.75
2023-01-23T05:43:05.353Z,4.58
2023-01-23T05:44:05.341Z,4.50
2023-01-23T05:45:05.334Z,4.52
2023-01-23T05:46:05.380Z,4.53
2023-01-23T05:47:05.358Z,4.53
2023-01-23T05:48:05.340Z,4.49
2023-01-23T05:49:05.349Z,4.50
2023-01-23T05:50:05.477Z,4.42
2023-01-23T05:51:05.365Z,4.41
2023-01-23T05:52:05.353Z,4.45
2023-01-23T05:53:05.356Z,4.45
2023-01-23T05:54:05.360Z,4.48
2023-01-23T05:55:05.354Z,4.44
2023-01-23T05:56:05.362Z,4.49
2023-01-23T05:57:05.374Z,4.41
2023-01-23T05:58:05.366Z,4.38
2023-01-23T05:59:05.505Z,4.44
2023-01-23T06:00:05.352Z,4.40
2023-01-23T06:01:05.355Z,4.42
2023-01-23T06:02:05.364Z,4.42
2023-01-23T06:03:05.358Z,4.44
2023-01-23T06:04:05.363Z,4.38
2023-01-23T06:05:05.376Z,4.38
2023-01-23T06:06:05.492Z,4.45
2023-01-23T06:07:05.366Z,4.37
2023-01-23T06:08:05.392Z,4.45
2023-01-23T06:09:05.367Z,4.53
2023-01-23T06:10:05.364Z,4.53
2023-01-23T06:11:05.375Z,4.62
2023-01-23T06:12:05.369Z,4.58
2023-01-23T06:13:05.381Z,4.68
2023-01-23T06:14:05.388Z,4.62
2023-01-23T06:15:05.371Z,4.75
2023-01-23T06:16:05.425Z,4.62
2023-01-23T06:17:05.381Z,4.74
2023-01-23T06:18:05.475Z,4.74
2023-01-23T06:19:05.383Z,4.68
2023-01-23T06:20:05.416Z,4.66
2023-01-23T06:21:05.388Z,4.66
2023-01-23T06:22:05.500Z,4.71
2023-01-23T06:23:05.391Z,4.71
2023-01-23T06:24:05.387Z,4.74
2023-01-23T06:25:05.394Z,4.71
2023-01-23T06:26:05.394Z,4.67
2023-01-23T06:27:05.386Z,4.62
2023-01-23T06:28:05.391Z,4.66
2023-01-23T06:29:05.401Z,4.60
2023-01-23T06:30:05.405Z,4.59
2023-01-23T06:31:05.517Z,4.56
2023-01-23T06:32:05.405Z,4.56
2023-01-23T06:33:05.394Z,4.50
2023-01-23T06:34:05.397Z,4.50
2023-01-23T06:35:05.418Z,4.50
2023-01-23T06:36:05.407Z,4.52
2023-01-23T06:37:05.416Z,4.53
2023-01-23T06:38:05.547Z,4.49
2023-01-23T06:39:05.410Z,4.55
2023-01-23T06:40:05.413Z,4.41
2023-01-23T06:41:05.409Z,4.45
2023-01-23T06:42:05.411Z,4.44
2023-01-23T06:43:05.406Z,4.42
2023-01-23T06:44:05.416Z,4.50
2023-01-23T06:45:05.418Z,4.53
2023-01-23T06:46:05.465Z,4.59
2023-01-23T06:47:05.416Z,4.62
2023-01-23T06:48:05.430Z,4.73
2023-01-23T06:49:06.359Z,4.67
2023-01-23T06:50:05.415Z,4.71
2023-01-23T06:51:05.435Z,4.68
2023-01-23T06:52:05.419Z,4.74
2023-01-23T06:53:05.428Z,4.71
2023-01-23T06:54:05.555Z,4.70
2023-01-23T06:55:05.425Z,4.77
2023-01-23T06:56:05.434Z,4.73
2023-01-23T06:57:05.443Z,4.75
2023-01-23T06:58:05.432Z,4.80
2023-01-23T06:59:05.434Z,4.75
2023-01-23T07:00:05.445Z,4.67
2023-01-23T07:01:05.430Z,4.73
2023-01-23T07:02:05.437Z,4.74
2023-01-23T07:03:05.529Z,4.67
2023-01-23T07:04:05.443Z,4.68
2023-01-23T07:05:05.441Z,4.73
2023-01-23T07:06:05.442Z,4.73
2023-01-23T07:07:05.436Z,4.80
2023-01-23T07:08:05.438Z,4.74
2023-01-23T07:09:05.440Z,4.90
2023-01-23T07:10:05.558Z,4.86
2023-01-23T07:11:05.443Z,4.77
2023-01-23T07:12:05.450Z,4.75
2023-01-23T07:13:05.446Z,4.75
2023-01-23T07:14:05.445Z,4.63
2023-01-23T07:15:05.455Z,4.73
2023-01-23T07:16:05.516Z,4.75
2023-01-23T07:17:05.459Z,4.60
2023-01-23T07:18:05.454Z,4.75
2023-01-23T07:19:05.459Z,4.77
2023-01-23T07:20:05.459Z,4.77
2023-01-23T07:21:05.455Z,4.70
2023-01-23T07:22:05.460Z,4.77
2023-01-23T07:23:05.460Z,4.74
2023-01-23T07:24:05.458Z,4.75
2023-01-23T07:25:05.470Z,4.87
2023-01-23T07:26:05.579Z,4.89
2023-01-23T07:27:05.473Z,4.87
2023-01-23T07:28:05.488Z,4.87
2023-01-23T07:29:05.466Z,4.87
2023-01-23T07:30:05.470Z,4.93
2023-01-23T07:31:05.753Z,4.92
2023-01-23T07:32:05.493Z,4.87
2023-01-23T07:33:05.481Z,4.90
2023-01-23T07:34:05.475Z,4.93
2023-01-23T07:35:05.488Z,4.89
2023-01-23T07:36:05.476Z,4.77
2023-01-23T07:37:05.489Z,4.80
2023-01-23T07:38:05.485Z,4.74
2023-01-23T07:39:05.485Z,4.74
2023-01-23T07:40:05.482Z,4.75
2023-01-23T07:41:05.489Z,4.82
2023-01-23T07:42:05.597Z,4.80
2023-01-23T07:43:05.485Z,4.92
2023-01-23T07:44:05.492Z,4.87
2023-01-23T07:45:05.487Z,4.94
2023-01-23T07:46:05.495Z,4.92
2023-01-23T07:47:05.503Z,4.94
2023-01-23T07:48:05.501Z,4.87
2023-01-23T07:49:05.504Z,4.87
2023-01-23T07:50:05.493Z,4.93
2023-01-23T07:51:05.561Z,5.00
2023-01-23T07:52:05.501Z,4.92
2023-01-23T07:53:05.500Z,4.87
2023-01-23T07:54:05.506Z,4.92
2023-01-23T07:55:05.509Z,4.92
2023-01-23T07:56:05.504Z,4.92
2023-01-23T07:57:05.512Z,5.02
2023-01-23T07:58:05.629Z,5.05
2023-01-23T07:59:05.522Z,4.92
2023-01-23T08:00:05.536Z,4.94
2023-01-23T08:01:05.562Z,4.92
2023-01-23T08:02:05.515Z,4.92
2023-01-23T08:03:05.513Z,4.93
2023-01-23T08:04:05.567Z,4.89
2023-01-23T08:05:05.527Z,4.99
2023-01-23T08:06:05.526Z,4.92
2023-01-23T08:07:05.519Z,4.92
2023-01-23T08:08:13.605Z,4.99
2023-01-23T08:09:05.530Z,5.02
2023-01-23T08:10:05.532Z,5.02
2023-01-23T08:11:05.527Z,5.04
2023-01-23T08:12:05.578Z,4.99
2023-01-23T08:13:05.552Z,5.08
2023-01-23T08:14:05.652Z,5.08
2023-01-23T08:15:05.533Z,5.04
2023-01-23T08:16:05.558Z,5.10
2023-01-23T08:17:05.535Z,5.20
2023-01-23T08:18:05.535Z,5.12
2023-01-23T08:19:05.539Z,5.17
2023-01-23T08:20:05.545Z,5.17
2023-01-23T08:21:05.559Z,5.07
2023-01-23T08:22:05.544Z,5.12
2023-01-23T08:23:05.554Z,5.10
2023-01-23T08:24:05.553Z,5.07
2023-01-23T08:25:05.553Z,5.05
2023-01-23T08:26:05.554Z,5.08
2023-01-23T08:27:05.558Z,5.12
2023-01-23T08:28:05.552Z,5.14
2023-01-23T08:29:05.558Z,5.11
2023-01-23T08:30:05.679Z,5.10
2023-01-23T08:31:06.817Z,5.02
2023-01-23T08:32:05.581Z,5.11
2023-01-23T08:33:05.559Z,5.05
2023-01-23T08:34:05.567Z,5.05
2023-01-23T08:35:05.586Z,5.15
2023-01-23T08:36:05.565Z,5.14
2023-01-23T08:37:05.567Z,5.11
2023-01-23T08:38:05.571Z,5.15
2023-01-23T08:39:05.583Z,5.26
2023-01-23T08:40:05.573Z,5.20
2023-01-23T08:41:05.576Z,5.20
2023-01-23T08:42:05.577Z,5.23
2023-01-23T08:43:05.588Z,5.26
2023-01-23T08:44:05.577Z,5.23
2023-01-23T08:45:05.582Z,5.21
2023-01-23T08:46:05.750Z,5.26
2023-01-23T08:47:05.591Z,5.25
2023-01-23T08:48:05.593Z,5.28
2023-01-23T08:49:05.595Z,5.23
2023-01-23T08:50:05.591Z,5.26
2023-01-23T08:51:05.667Z,5.29
2023-01-23T08:52:05.613Z,5.30
2023-01-23T08:53:05.599Z,5.29
2023-01-23T08:54:05.604Z,5.32
2023-01-23T08:55:05.596Z,5.30
2023-01-23T08:56:05.609Z,5.32
2023-01-23T08:57:05.606Z,5.33
2023-01-23T08:58:05.600Z,5.30
2023-01-23T08:59:05.604Z,5.38
2023-01-23T09:00:05.604Z,5.33
2023-01-23T09:01:05.638Z,5.38
2023-01-23T09:02:05.814Z,5.41
2023-01-23T09:03:05.618Z,5.39
2023-01-23T09:04:05.622Z,5.41
2023-01-23T09:05:05.630Z,5.43
2023-01-23T09:06:05.628Z,5.38
2023-01-23T09:07:05.634Z,5.30
2023-01-23T09:08:05.629Z,5.33
2023-01-23T09:09:05.632Z,5.26
2023-01-23T09:10:05.630Z,5.30
2023-01-23T09:11:05.629Z,5.33
2023-01-23T09:12:05.625Z,5.28
2023-01-23T09:13:05.628Z,5.26
2023-01-23T09:14:05.640Z,5.32
2023-01-23T09:15:05.630Z,5.29
2023-01-23T09:16:05.702Z,5.29
2023-01-23T09:17:05.642Z,5.28
2023-01-23T09:18:05.659Z,5.23
2023-01-23T09:19:05.638Z,5.20
2023-01-23T09:20:05.644Z,5.23
2023-01-23T09:21:07.886Z,5.25
2023-01-23T09:22:05.654Z,5.20
2023-01-23T09:23:05.655Z,5.26
2023-01-23T09:24:05.645Z,5.23
2023-01-23T09:25:05.649Z,5.29
2023-01-23T09:26:05.665Z,5.21
2023-01-23T09:27:05.651Z,5.25
2023-01-23T09:28:05.660Z,5.21
2023-01-23T09:29:05.657Z,5.23
2023-01-23T09:30:05.667Z,5.33
2023-01-23T09:31:05.722Z,5.30
2023-01-23T09:32:05.792Z,5.30
2023-01-23T09:33:05.668Z,5.21
2023-01-23T09:34:05.781Z,5.17
2023-01-23T09:35:05.677Z,5.21
2023-01-23T09:36:05.688Z,5.30
2023-01-23T09:37:05.673Z,5.35
2023-01-23T09:38:05.671Z,5.38
2023-01-23T09:39:05.678Z,5.43
2023-01-23T09:40:05.675Z,5.44
2023-01-23T09:41:05.676Z,5.47
2023-01-23T09:42:08.232Z,5.43
2023-01-23T09:43:05.680Z,5.41
2023-01-23T09:44:05.691Z,5.43
2023-01-23T09:45:05.691Z,5.48
2023-01-23T09:46:05.773Z,5.48
2023-01-23T09:47:05.693Z,5.50
2023-01-23T09:48:05.694Z,5.44
2023-01-23T09:49:05.701Z,5.44
2023-01-23T09:50:05.826Z,5.44
2023-01-23T09:51:05.732Z,5.44
2023-01-23T09:52:05.710Z,5.50
2023-01-23T09:53:05.712Z,5.53
2023-01-23T09:54:05.700Z,5.51
2023-01-23T09:55:05.701Z,5.44
2023-01-23T09:56:05.706Z,5.44
2023-01-23T09:57:05.709Z,5.38
2023-01-23T09:58:05.711Z,5.32
2023-01-23T09:59:05.709Z,5.39
2023-01-23T10:00:05.717Z,5.30
2023-01-23T10:01:05.777Z,5.33
2023-01-23T10:02:05.744Z,5.36
2023-01-23T10:03:05.714Z,5.32
2023-01-23T10:04:05.726Z,5.26
2023-01-23T10:05:05.734Z,5.36
2023-01-23T10:06:05.860Z,5.41
2023-01-23T10:07:05.727Z,5.44
2023-01-23T10:08:05.725Z,5.46
2023-01-23T10:09:05.726Z,5.41
2023-01-23T10:10:07.038Z,5.36
2023-01-23T10:11:05.740Z,5.41
2023-01-23T10:12:05.743Z,5.43
2023-01-23T10:13:05.746Z,5.41
2023-01-23T10:14:05.743Z,5.46
2023-01-23T10:15:05.754Z,5.46
2023-01-23T10:16:05.747Z,5.47
2023-01-23T10:17:05.813Z,5.48
2023-01-23T10:18:05.746Z,5.53
2023-01-23T10:19:05.753Z,5.50
2023-01-23T10:20:05.759Z,5.56
2023-01-23T10:21:05.756Z,5.48
2023-01-23T10:22:05.879Z,5.64
2023-01-23T10:23:05.754Z,5.64
2023-01-23T10:24:05.765Z,5.65
2023-01-23T10:25:05.757Z,5.69
2023-01-23T10:26:05.768Z,5.71
2023-01-23T10:27:05.770Z,5.64
2023-01-23T10:28:05.774Z,5.64
2023-01-23T10:29:05.774Z,5.61
2023-01-23T10:30:05.777Z,5.64
2023-01-23T10:31:05.872Z,5.64
2023-01-23T10:32:05.774Z,5.64
2023-01-23T10:33:05.786Z,5.66
2023-01-23T10:34:05.797Z,5.68
2023-01-23T10:35:05.793Z,5.65
2023-01-23T10:36:05.788Z,5.68
2023-01-23T10:37:05.787Z,5.71
2023-01-23T10:38:05.955Z,5.72
2023-01-23T10:39:05.790Z,5.71
2023-01-23T10:40:05.799Z,5.66
2023-01-23T10:41:05.792Z,5.75
2023-01-23T10:42:05.800Z,5.71
2023-01-23T10:43:05.805Z,5.59
2023-01-23T10:44:05.805Z,5.64
2023-01-23T10:45:05.810Z,5.66
2023-01-23T10:46:05.887Z,5.66
2023-01-23T10:47:05.816Z,5.61
2023-01-23T10:48:06.402Z,5.66
2023-01-23T10:49:05.818Z,5.62
2023-01-23T10:50:05.819Z,5.50
2023-01-23T10:51:05.916Z,5.61
2023-01-23T10:52:05.830Z,5.54
2023-01-23T10:53:05.826Z,5.68
2023-01-23T10:54:06.588Z,5.62
2023-01-23T10:55:05.821Z,5.64
2023-01-23T10:56:05.834Z,5.61
2023-01-23T10:57:05.889Z,5.64
2023-01-23T10:58:05.836Z,5.64
2023-01-23T10:59:05.838Z,5.56
2023-01-23T11:00:05.841Z,5.68
2023-01-23T11:01:05.877Z,5.69
2023-01-23T11:02:05.952Z,5.64
2023-01-23T11:03:05.948Z,5.65
2023-01-23T11:04:05.843Z,5.68
2023-01-23T11:05:05.850Z,5.68
2023-01-23T11:06:05.853Z,5.73
2023-01-23T11:07:05.869Z,5.62
2023-01-23T11:08:05.859Z,5.62
2023-01-23T11:09:05.853Z,5.65
2023-01-23T11:10:05.974Z,5.71
2023-01-23T11:11:05.863Z,5.64
2023-01-23T11:12:05.894Z,5.61
2023-01-23T11:13:05.876Z,5.64
2023-01-23T11:14:05.863Z,5.66
2023-01-23T11:15:05.876Z,5.71
2023-01-23T11:16:06.068Z,5.71
2023-01-23T11:17:05.869Z,5.69
2023-01-23T11:18:05.877Z,5.66
2023-01-23T11:19:05.880Z,5.71
2023-01-23T11:20:05.875Z,5.66
2023-01-23T11:21:05.878Z,5.69
2023-01-23T11:22:05.879Z,5.69
2023-01-23T11:23:05.899Z,5.56
2023-01-23T11:24:05.887Z,5.68
2023-01-23T11:25:05.893Z,5.66
2023-01-23T11:26:06.018Z,5.65
2023-01-23T11:27:05.890Z,5.61
2023-01-23T11:28:05.900Z,5.59
2023-01-23T11:29:05.893Z,5.61
2023-01-23T11:30:05.903Z,5.53
2023-01-23T11:31:14.132Z,5.59
2023-01-23T11:32:06.106Z,5.65
2023-01-23T11:33:05.911Z,5.71
2023-01-23T11:34:05.906Z,5.66
2023-01-23T11:35:08.524Z,5.71
2023-01-23T11:36:05.911Z,5.76
2023-01-23T11:37:05.911Z,5.73
2023-01-23T11:38:05.925Z,5.71
2023-01-23T11:39:05.923Z,5.83
2023-01-23T11:40:05.918Z,5.82
2023-01-23T11:41:05.927Z,5.84
2023-01-23T11:42:06.051Z,5.84
2023-01-23T11:43:05.932Z,5.87
2023-01-23T11:44:07.863Z,5.80
2023-01-23T11:45:05.939Z,5.84
2023-01-23T11:46:05.999Z,5.87
2023-01-23T11:47:05.943Z,5.84
2023-01-23T11:48:05.946Z,5.84
2023-01-23T11:49:05.952Z,5.79
2023-01-23T11:50:05.940Z,5.72
2023-01-23T11:51:05.983Z,5.72
2023-01-23T11:52:05.952Z,5.79
2023-01-23T11:53:05.956Z,5.69
2023-01-23T11:54:06.038Z,5.76
2023-01-23T11:55:05.954Z,5.82
2023-01-23T11:56:05.975Z,5.84
2023-01-23T11:57:05.963Z,5.84
2023-01-23T11:58:06.087Z,5.79
2023-01-23T11:59:05.971Z,5.83
2023-01-23T12:00:05.975Z,5.84
2023-01-23T12:01:05.975Z,5.90
2023-01-23T12:02:05.968Z,5.87
2023-01-23T12:03:06.096Z,5.93
2023-01-23T12:04:06.015Z,5.87
2023-01-23T12:05:05.974Z,5.99
2023-01-23T12:06:19.332Z,5.90
2023-01-23T12:07:05.987Z,5.91
2023-01-23T12:08:05.984Z,5.86
2023-01-23T12:09:05.994Z,5.83
2023-01-23T12:10:05.989Z,5.84
2023-01-23T12:11:05.994Z,5.90
2023-01-23T12:12:06.004Z,5.73
2023-01-23T12:13:06.007Z,5.84
2023-01-23T12:14:06.121Z,5.93
2023-01-23T12:15:06.015Z,5.97
2023-01-23T12:16:06.044Z,5.89
2023-01-23T12:17:06.003Z,5.94
2023-01-23T12:18:06.009Z,5.90
2023-01-23T12:19:06.006Z,5.97
2023-01-23T12:20:06.018Z,5.93
2023-01-23T12:21:06.025Z,5.93
2023-01-23T12:22:06.033Z,5.87
2023-01-23T12:23:06.028Z,5.89
2023-01-23T12:24:06.025Z,5.89
2023-01-23T12:25:06.029Z,5.82
2023-01-23T12:26:06.025Z,5.86
2023-01-23T12:27:06.035Z,5.82
2023-01-23T12:28:06.033Z,5.86
2023-01-23T12:29:06.038Z,5.86
2023-01-23T12:30:06.171Z,5.89
2023-01-23T12:31:06.141Z,5.91
2023-01-23T12:32:06.159Z,5.87
2023-01-23T12:33:06.050Z,5.76
2023-01-23T12:34:06.041Z,5.82
2023-01-23T12:35:06.052Z,5.83
2023-01-23T12:36:06.066Z,5.80
2023-01-23T12:37:12.041Z,5.83
2023-01-23T12:38:06.051Z,5.79
2023-01-23T12:39:06.061Z,5.83
2023-01-23T12:40:07.708Z,5.75
2023-01-23T12:41:06.062Z,5.82
2023-01-23T12:42:06.072Z,5.72
2023-01-23T12:43:06.072Z,5.73
2023-01-23T12:44:06.077Z,5.80
2023-01-23T12:45:06.070Z,5.76
2023-01-23T12:46:06.196Z,5.75
2023-01-23T12:47:06.136Z,5.69
2023-01-23T12:48:06.103Z,5.68
2023-01-23T12:49:06.088Z,5.65
2023-01-23T12:50:06.709Z,5.69
2023-01-23T12:51:06.135Z,5.72
2023-01-23T12:52:06.093Z,5.71
2023-01-23T12:53:06.087Z,5.73
2023-01-23T12:54:06.089Z,5.72
2023-01-23T12:55:06.098Z,5.72
2023-01-23T12:56:06.095Z,5.72
2023-01-23T12:57:06.097Z,5.76
2023-01-23T12:58:09.286Z,5.71
2023-01-23T12:59:06.108Z,5.80
2023-01-23T13:00:06.113Z,5.80
2023-01-23T13:01:06.224Z,5.82
2023-01-23T13:02:06.279Z,5.86
2023-01-23T13:03:06.113Z,5.76
2023-01-23T13:04:06.119Z,5.82
2023-01-23T13:05:06.125Z,5.72
2023-01-23T13:06:06.122Z,5.73
2023-01-23T13:07:06.118Z,5.79
2023-01-23T13:08:06.133Z,5.80
2023-01-23T13:09:17.474Z,5.84
2023-01-23T13:10:06.129Z,5.86
2023-01-23T13:11:06.133Z,5.84
2023-01-23T13:12:06.129Z,5.87
2023-01-23T13:13:06.142Z,5.84
2023-01-23T13:14:06.132Z,5.91
2023-01-23T13:15:14.350Z,5.91
2023-01-23T13:16:06.148Z,5.91
2023-01-23T13:17:06.144Z,5.91
2023-01-23T13:18:06.508Z,5.83